createdAt,value
2022-10-13T00:01:33.102Z,100.00
2022-10-13T00:04:02.824Z,100.00
2022-10-13T00:06:31.720Z,100.00
2022-10-13T00:09:03.054Z,100.00
2022-10-13T00:11:31.905Z,100.00
2022-10-13T00:14:03.665Z,100.00
2022-10-13T00:16:34.751Z,100.00
2022-10-13T00:19:04.965Z,100.00
2022-10-13T00:21:32.796Z,100.00
2022-10-13T00:24:04.208Z,100.00
2022-10-13T00:26:34.131Z,100.00
2022-10-13T00:29:04.247Z,100.00
2022-10-13T00:31:33.305Z,100.00
2022-10-13T00:34:02.216Z,100.00
2022-10-13T00:36:33.014Z,100.00
2022-10-13T00:39:04.070Z,100.00
2022-10-13T00:41:31.892Z,100.00
2022-10-13T00:44:07.510Z,100.00
2022-10-13T00:46:37.024Z,100.00
2022-10-13T00:49:12.750Z,100.00
2022-10-13T00:51:45.086Z,100.00
2022-10-13T00:54:21.678Z,100.00
2022-10-13T00:56:50.938Z,100.00
2022-10-13T00:59:26.711Z,100.00
2022-10-13T01:01:54.819Z,100.00
2022-10-13T01:04:29.807Z,100.00
2022-10-13T01:06:59.035Z,100.00
2022-10-13T01:09:38.187Z,100.00
2022-10-13T01:12:13.032Z,100.00
2022-10-13T01:14:52.738Z,100.00
2022-10-13T01:17:31.231Z,100.00
2022-10-13T01:20:29.251Z,100.00
2022-10-13T01:23:09.107Z,100.00
2022-10-13T01:25:53.472Z,100.00
2022-10-13T01:28:41.713Z,100.00
2022-10-13T01:31:22.604Z,100.00
2022-10-13T01:33:58.944Z,100.00
2022-10-13T01:36:36.540Z,100.00
2022-10-13T01:39:09.597Z,100.00
2022-10-13T01:41:45.134Z,100.00
2022-10-13T01:44:17.360Z,100.00
2022-10-13T01:46:53.161Z,100.00
2022-10-13T01:49:25.295Z,100.00
2022-10-13T01:51:58.424Z,100.00
2022-10-13T01:54:26.290Z,100.00
2022-10-13T01:56:54.481Z,100.00
2022-10-13T01:59:26.828Z,100.00
2022-10-13T02:02:07.650Z,100.00
2022-10-13T02:04:50.473Z,100.00
2022-10-13T02:07:24.657Z,100.00
2022-10-13T02:10:06.476Z,100.00
2022-10-13T02:12:42.347Z,100.00
2022-10-13T02:15:16.431Z,100.00
2022-10-13T02:17:45.784Z,100.00
2022-10-13T02:20:17.385Z,100.00
2022-10-13T02:22:52.261Z,100.00
2022-10-13T02:25:20.677Z,100.00
2022-10-13T02:27:49.227Z,100.00
2022-10-13T02:30:27.175Z,100.00
2022-10-13T02:32:58.518Z,100.00
2022-10-13T02:35:26.643Z,100.00
2022-10-13T02:37:56.982Z,100.00
2022-10-13T02:40:27.862Z,100.00
2022-10-13T02:42:55.684Z,100.00
2022-10-13T02:45:26.563Z,100.00
2022-10-13T02:47:56.971Z,100.00
2022-10-13T02:50:24.905Z,100.00
2022-10-13T02:52:54.954Z,100.00
2022-10-13T02:55:24.985Z,100.00
2022-10-13T02:57:53.651Z,100.00
2022-10-13T03:00:24.317Z,100.00
2022-10-13T03:02:56.282Z,100.00
2022-10-13T03:05:25.971Z,100.00
2022-10-13T03:07:53.946Z,100.00
2022-10-13T03:10:21.951Z,100.00
2022-10-13T03:12:50.161Z,100.00
2022-10-13T03:15:18.198Z,100.00
2022-10-13T03:17:48.151Z,100.00
2022-10-13T03:20:16.705Z,100.00
2022-10-13T03:22:49.581Z,100.00
2022-10-13T03:25:22.007Z,100.00
2022-10-13T03:27:49.776Z,100.00
2022-10-13T03:30:17.673Z,100.00
2022-10-13T03:32:49.640Z,100.00
2022-10-13T03:35:17.626Z,100.00
2022-10-13T03:37:46.776Z,100.00
2022-10-13T03:40:19.184Z,100.00
2022-10-13T03:42:47.169Z,100.00
2022-10-13T03:45:15.702Z,100.00
2022-10-13T03:47:48.544Z,100.00
2022-10-13T03:50:19.109Z,100.00
2022-10-13T03:52:48.710Z,100.00
2022-10-13T03:55:19.457Z,100.00
2022-10-13T03:57:49.825Z,100.00
2022-10-13T04:00:19.217Z,100.00
2022-10-13T04:02:53.895Z,100.00
2022-10-13T04:05:23.790Z,100.00
2022-10-13T04:07:52.953Z,100.00
2022-10-13T04:10:22.855Z,100.00
2022-10-13T04:12:52.969Z,100.00
2022-10-13T04:15:20.970Z,100.00
2022-10-13T04:17:50.716Z,100.00
2022-10-13T04:20:24.366Z,100.00
2022-10-13T04:22:53.484Z,100.00
2022-10-13T04:25:23.800Z,100.00
2022-10-13T04:27:53.616Z,100.00
2022-10-13T04:30:21.580Z,100.00
2022-10-13T04:32:51.748Z,100.00
2022-10-13T04:35:21.706Z,100.00
2022-10-13T04:37:49.459Z,100.00
2022-10-13T04:40:20.725Z,100.00
2022-10-13T04:42:50.492Z,100.00
2022-10-13T04:45:18.637Z,100.00
2022-10-13T04:47:48.609Z,100.00
2022-10-13T04:50:16.536Z,100.00
2022-10-13T04:52:45.260Z,100.00
2022-10-13T04:55:16.635Z,100.00
2022-10-13T04:57:52.232Z,100.00
2022-10-13T05:00:22.778Z,100.00
2022-10-13T05:02:51.381Z,100.00
2022-10-13T05:05:21.446Z,100.00
2022-10-13T05:07:51.459Z,100.00
2022-10-13T05:10:19.352Z,100.00
2022-10-13T05:12:50.353Z,100.00
2022-10-13T05:15:20.320Z,100.00
2022-10-13T05:17:48.112Z,100.00
2022-10-13T05:20:18.692Z,100.00
2022-10-13T05:22:48.642Z,100.00
2022-10-13T05:25:16.577Z,100.00
2022-10-13T05:27:47.096Z,100.00
2022-10-13T05:30:18.344Z,100.00
2022-10-13T05:32:49.225Z,100.00
2022-10-13T05:35:25.723Z,100.00
2022-10-13T05:37:56.289Z,100.00
2022-10-13T05:40:24.690Z,100.00
2022-10-13T05:42:55.807Z,100.00
2022-10-13T05:45:26.652Z,100.00
2022-10-13T05:47:54.648Z,100.00
2022-10-13T05:50:24.389Z,100.00
2022-10-13T05:52:57.854Z,100.00
2022-10-13T05:55:27.647Z,100.00
2022-10-13T05:57:55.607Z,100.00
2022-10-13T06:00:25.031Z,100.00
2022-10-13T06:02:58.705Z,100.00
2022-10-13T08:18:01.724Z,64.59
2022-10-13T08:20:40.965Z,60.08
2022-10-13T08:23:15.338Z,58.37
2022-10-13T08:25:45.044Z,57.82
2022-10-13T08:28:19.747Z,56.27
2022-10-13T08:30:47.976Z,54.91
2022-10-13T08:34:52.976Z,39.39
2022-10-13T08:37:21.915Z,39.70
2022-10-13T08:40:49.001Z,39.85
2022-10-13T08:43:22.323Z,39.52
2022-10-13T08:45:53.987Z,39.41
2022-10-13T08:48:25.587Z,39.25
2022-10-13T08:50:58.172Z,39.17
2022-10-13T08:53:31.694Z,38.95
2022-10-13T08:56:05.580Z,38.95
2022-10-13T08:58:37.934Z,38.98
2022-10-13T09:01:16.158Z,39.14
2022-10-13T09:03:51.899Z,39.10
2022-10-13T09:06:30.570Z,38.97
2022-10-13T09:09:02.573Z,39.22
2022-10-13T09:11:35.711Z,39.00
2022-10-13T09:14:06.934Z,39.08
2022-10-13T09:16:37.692Z,38.97
2022-10-13T09:24:13.768Z,100.00
2022-10-13T09:33:15.200Z,41.12
2022-10-13T09:38:32.554Z,61.33
2022-10-13T09:41:03.821Z,63.83
2022-10-13T09:43:38.574Z,64.42
2022-10-13T09:46:14.942Z,66.44
2022-10-13T09:48:50.385Z,67.91
2022-10-13T09:51:44.856Z,69.03
2022-10-13T09:54:30.262Z,69.64
2022-10-13T09:57:02.207Z,68.86
2022-10-13T09:59:36.982Z,69.94
2022-10-13T10:02:21.395Z,71.20
2022-10-13T10:04:57.934Z,70.61
2022-10-13T10:07:30.961Z,70.85
2022-10-13T10:10:07.787Z,69.42
2022-10-13T10:12:38.311Z,69.47
2022-10-13T10:15:19.184Z,69.16
2022-10-13T10:17:53.222Z,70.38
2022-10-13T10:20:51.126Z,67.19
2022-10-13T10:23:24.004Z,69.16
2022-10-13T10:26:02.680Z,67.24
2022-10-13T10:28:51.898Z,66.68
2022-10-13T10:31:33.486Z,65.04
2022-10-13T10:34:15.398Z,66.53
2022-10-13T10:36:56.336Z,67.13
2022-10-13T10:39:32.044Z,66.82
2022-10-13T10:42:08.225Z,65.43
2022-10-13T10:44:39.672Z,65.14
2022-10-13T10:47:12.595Z,66.94
2022-10-13T10:49:40.631Z,65.35
2022-10-13T10:52:32.977Z,66.30
2022-10-13T10:55:15.489Z,66.02
2022-10-13T10:57:59.147Z,64.85
2022-10-13T11:03:03.050Z,65.73
2022-10-13T11:06:01.386Z,65.89
2022-10-13T11:08:32.432Z,66.58
2022-10-13T11:11:34.874Z,64.98
2022-10-13T11:14:34.058Z,63.49
2022-10-13T11:17:17.819Z,63.91
2022-10-13T11:19:51.028Z,62.18
2022-10-13T11:22:26.551Z,63.22
2022-10-13T11:25:00.956Z,61.34
2022-10-13T11:27:43.674Z,60.95
2022-10-13T11:30:52.032Z,61.06
2022-10-13T11:33:53.973Z,60.99
2022-10-13T11:36:34.020Z,60.29
2022-10-13T11:39:20.896Z,60.26
2022-10-13T11:41:56.278Z,61.17
2022-10-13T11:44:33.242Z,60.64
2022-10-13T11:47:16.765Z,60.51
2022-10-13T11:50:05.982Z,62.59
2022-10-13T11:53:01.744Z,63.19
2022-10-13T11:55:39.900Z,61.87
2022-10-13T11:58:17.285Z,62.73
2022-10-13T12:00:56.969Z,60.97
2022-10-13T12:03:30.451Z,62.24
2022-10-13T12:06:02.448Z,62.23
2022-10-13T12:08:36.988Z,62.35
2022-10-13T12:11:07.739Z,63.63
2022-10-13T12:13:40.048Z,63.46
2022-10-13T12:16:09.396Z,64.06
2022-10-13T12:18:43.903Z,66.30
2022-10-13T12:21:14.207Z,65.02
2022-10-13T12:23:44.577Z,65.74
2022-10-13T12:26:17.405Z,65.54
2022-10-13T12:28:51.170Z,66.62
2022-10-13T12:31:23.510Z,65.16
2022-10-13T12:33:58.260Z,65.46
2022-10-13T12:36:30.384Z,66.38
2022-10-13T12:39:03.564Z,65.90
2022-10-13T12:41:34.432Z,67.06
2022-10-13T12:44:08.925Z,66.85
2022-10-13T12:46:40.442Z,66.37
2022-10-13T12:49:15.982Z,68.13
2022-10-13T12:51:47.898Z,67.99
2022-10-13T12:54:22.259Z,67.39
2022-10-13T12:56:55.368Z,68.12
2022-10-13T12:59:25.698Z,68.51
2022-10-13T13:01:56.921Z,67.60
2022-10-13T13:04:43.774Z,69.42
2022-10-13T13:07:31.592Z,69.78
2022-10-13T13:10:15.023Z,69.50
2022-10-13T13:12:45.968Z,68.87
2022-10-13T13:15:36.979Z,69.94
2022-10-13T13:18:30.552Z,69.19
2022-10-13T13:21:01.862Z,69.92
2022-10-13T13:23:34.302Z,69.03
2022-10-13T13:26:03.894Z,70.09
2022-10-13T13:28:33.394Z,70.00
2022-10-13T13:31:01.613Z,69.77
2022-10-13T13:33:29.567Z,69.84
2022-10-13T13:35:59.047Z,69.26
2022-10-13T13:38:26.865Z,70.12
2022-10-13T13:40:54.802Z,69.44
2022-10-13T13:43:22.669Z,70.60
2022-10-13T13:45:50.705Z,70.08
2022-10-13T13:48:32.450Z,70.40
2022-10-13T13:51:01.897Z,71.61
2022-10-13T13:53:31.786Z,70.50
2022-10-13T13:55:59.580Z,70.51
2022-10-13T13:58:29.232Z,70.68
2022-10-13T14:00:57.246Z,71.67
2022-10-13T14:03:25.012Z,72.39
2022-10-13T14:05:53.050Z,72.85
2022-10-13T14:08:22.317Z,72.24
2022-10-13T14:10:50.135Z,73.04
2022-10-13T14:13:18.022Z,72.76
2022-10-13T14:15:57.015Z,73.56
2022-10-13T14:18:26.710Z,74.28
2022-10-13T14:20:56.564Z,74.38
2022-10-13T14:23:25.760Z,74.77
2022-10-13T14:25:55.582Z,74.10
2022-10-13T14:28:25.982Z,75.01
2022-10-13T14:30:53.740Z,74.95
2022-10-13T14:33:21.687Z,75.16
2022-10-13T14:35:49.580Z,75.96
2022-10-13T14:38:17.381Z,75.74
2022-10-13T14:40:48.512Z,75.65
2022-10-13T14:43:16.429Z,74.92
2022-10-13T14:45:44.178Z,75.55
2022-10-13T14:48:14.203Z,75.55
2022-10-13T14:50:44.114Z,74.85
2022-10-13T14:53:17.252Z,74.71
2022-10-13T14:55:48.699Z,75.69
2022-10-13T14:58:16.512Z,76.35
2022-10-13T15:00:46.302Z,75.86
2022-10-13T15:03:16.279Z,75.15
2022-10-13T15:05:44.176Z,75.94
2022-10-13T15:08:14.064Z,75.85
2022-10-13T15:10:45.159Z,76.08
2022-10-13T15:13:14.292Z,75.92
2022-10-13T15:15:51.368Z,76.61
2022-10-13T15:18:19.095Z,77.04
2022-10-13T15:20:47.642Z,76.80
2022-10-13T15:23:16.340Z,77.51
2022-10-13T15:25:51.132Z,78.71
2022-10-13T15:28:22.546Z,78.79
2022-10-13T15:30:50.435Z,79.55
2022-10-13T15:33:18.706Z,80.21
2022-10-13T15:35:49.036Z,81.47
2022-10-13T15:38:16.833Z,81.54
2022-10-13T15:40:45.049Z,83.27
2022-10-13T15:43:13.703Z,82.44
2022-10-13T15:45:42.963Z,83.73
2022-10-13T15:48:12.091Z,83.38
2022-10-13T15:50:43.003Z,85.00
2022-10-13T15:53:10.855Z,85.48
2022-10-13T15:55:39.026Z,86.02
2022-10-13T15:58:13.661Z,86.50
2022-10-13T16:00:43.722Z,87.19
2022-10-13T16:03:17.551Z,88.21
2022-10-13T16:05:46.759Z,88.96
2022-10-13T16:08:16.777Z,89.18
2022-10-13T16:10:46.761Z,88.97
2022-10-13T16:13:16.012Z,89.96
2022-10-13T16:16:00.148Z,89.64
2022-10-13T16:18:30.756Z,89.13
2022-10-13T16:21:00.699Z,88.65
2022-10-13T16:23:28.782Z,89.35
2022-10-13T16:25:56.576Z,87.51
2022-10-13T16:28:24.475Z,89.25
2022-10-13T16:30:53.695Z,88.92
2022-10-13T16:33:21.425Z,89.34
2022-10-13T16:35:49.435Z,90.33
2022-10-13T16:38:17.382Z,89.00
2022-10-13T16:40:45.169Z,89.36
2022-10-13T16:43:13.159Z,89.40
2022-10-13T16:45:59.249Z,90.24
2022-10-13T16:48:31.650Z,90.27
2022-10-13T16:51:00.908Z,88.74
2022-10-13T16:53:28.755Z,89.95
2022-10-13T16:55:56.620Z,89.41
2022-10-13T16:58:24.760Z,92.52
2022-10-13T17:00:54.690Z,92.92
2022-10-13T17:03:22.493Z,92.52
2022-10-13T17:05:56.232Z,93.27
2022-10-13T17:08:24.200Z,92.21
2022-10-13T17:10:58.025Z,92.14
2022-10-13T17:13:28.538Z,91.78
2022-10-13T17:15:58.080Z,90.53
2022-10-13T17:18:27.173Z,90.70
2022-10-13T17:21:10.186Z,91.06
2022-10-13T17:23:38.148Z,92.08
2022-10-13T17:26:10.548Z,92.82
2022-10-13T17:28:41.206Z,91.77
2022-10-13T17:31:14.467Z,91.97
2022-10-13T17:33:43.557Z,93.46
2022-10-13T17:36:17.235Z,93.20
2022-10-13T17:38:45.507Z,93.18
2022-10-13T17:41:14.022Z,93.17
2022-10-13T17:43:44.416Z,93.36
2022-10-13T17:46:35.816Z,92.33
2022-10-13T17:49:04.906Z,92.87
2022-10-13T17:51:38.233Z,93.31
2022-10-13T17:54:08.237Z,94.66
2022-10-13T17:56:39.576Z,95.01
2022-10-13T17:59:07.452Z,95.67
2022-10-13T18:01:36.052Z,93.71
2022-10-13T18:04:06.172Z,94.68
2022-10-13T18:06:40.959Z,93.48
2022-10-13T18:09:13.780Z,93.50
2022-10-13T18:11:49.763Z,94.37
2022-10-13T18:14:21.438Z,94.20
2022-10-13T18:16:52.941Z,93.69
2022-10-13T18:19:21.761Z,94.52
2022-10-13T18:21:54.468Z,94.80
2022-10-13T18:24:25.218Z,96.58
2022-10-13T18:26:54.270Z,95.98
2022-10-13T18:29:27.862Z,95.46
2022-10-13T18:31:59.998Z,94.56
2022-10-13T18:34:30.523Z,96.95
2022-10-13T18:36:59.517Z,96.46
2022-10-13T18:39:30.295Z,95.92
2022-10-13T18:42:00.961Z,98.26
2022-10-13T18:44:46.576Z,99.60
2022-10-13T18:47:18.114Z,98.62
2022-10-13T18:49:47.150Z,98.34
2022-10-13T18:52:24.858Z,100.00
2022-10-13T18:54:52.826Z,100.00
2022-10-13T18:57:21.866Z,99.88
2022-10-13T18:59:50.369Z,100.00
2022-10-13T19:02:18.790Z,100.00
2022-10-13T19:04:49.365Z,100.00
2022-10-13T19:07:24.481Z,99.43
2022-10-13T19:09:54.598Z,99.78
2022-10-13T19:12:22.504Z,100.00
2022-10-13T19:14:52.563Z,100.00
2022-10-13T19:17:23.017Z,100.00
2022-10-13T19:19:53.934Z,100.00
2022-10-13T19:22:22.114Z,97.95
2022-10-13T19:24:53.733Z,100.00
2022-10-13T19:27:22.803Z,100.00
2022-10-13T19:29:57.791Z,100.00
2022-10-13T19:32:27.779Z,100.00
2022-10-13T19:34:55.744Z,100.00
2022-10-13T19:37:26.370Z,100.00
2022-10-13T19:39:57.849Z,100.00
2022-10-13T19:42:25.767Z,100.00
2022-10-13T19:44:55.773Z,100.00
2022-10-13T19:47:23.891Z,100.00
2022-10-13T19:49:51.765Z,100.00
2022-10-13T19:52:24.288Z,100.00
2022-10-13T19:54:55.951Z,100.00
2022-10-13T19:57:25.460Z,100.00
2022-10-13T19:59:53.346Z,100.00
2022-10-13T20:02:21.404Z,100.00
2022-10-13T20:04:49.454Z,100.00
2022-10-13T20:07:17.216Z,100.00
2022-10-13T20:09:45.804Z,100.00
2022-10-13T20:12:16.275Z,100.00
2022-10-13T20:14:43.888Z,100.00
2022-10-13T20:17:11.737Z,100.00
2022-10-13T20:19:41.880Z,100.00
2022-10-13T20:22:09.660Z,100.00
2022-10-13T20:24:53.011Z,100.00
2022-10-13T20:27:22.632Z,100.00
2022-10-13T20:29:50.975Z,100.00
2022-10-13T20:32:20.894Z,100.00
2022-10-13T20:34:48.657Z,100.00
2022-10-13T20:37:17.004Z,100.00
2022-10-13T20:39:44.944Z,100.00
2022-10-13T20:42:14.268Z,100.00
2022-10-13T20:44:45.322Z,100.00
2022-10-13T20:47:13.390Z,100.00
2022-10-13T20:49:41.340Z,100.00
2022-10-13T20:52:13.248Z,100.00
2022-10-13T20:54:40.993Z,100.00
2022-10-13T20:57:08.803Z,100.00
2022-10-13T20:59:40.746Z,100.00
2022-10-13T21:02:10.713Z,100.00
2022-10-13T21:04:40.651Z,100.00
2022-10-13T21:07:08.587Z,100.00
2022-10-13T21:09:36.531Z,100.00
2022-10-13T21:12:06.514Z,100.00
2022-10-13T21:14:36.337Z,100.00
2022-10-13T21:17:04.170Z,100.00
2022-10-13T21:19:37.073Z,100.00
2022-10-13T21:22:06.794Z,100.00
2022-10-13T21:24:36.993Z,100.00
2022-10-13T21:27:04.936Z,100.00
2022-10-13T21:29:34.638Z,100.00
2022-10-13T21:32:02.553Z,100.00
2022-10-13T21:34:30.348Z,100.00
2022-10-13T21:37:01.372Z,100.00
2022-10-13T21:39:31.296Z,100.00
2022-10-13T21:41:59.086Z,100.00
2022-10-13T21:44:27.976Z,100.00
2022-10-13T21:46:58.027Z,100.00
2022-10-13T21:49:25.811Z,100.00
2022-10-13T21:51:57.582Z,100.00
2022-10-13T21:54:26.901Z,100.00
2022-10-13T21:56:54.692Z,100.00
2022-10-13T21:59:26.499Z,100.00
2022-10-13T22:01:54.313Z,100.00
2022-10-13T22:04:22.154Z,100.00
2022-10-13T22:06:53.951Z,100.00
2022-10-13T22:09:21.786Z,100.00
2022-10-13T22:11:56.216Z,100.00
2022-10-13T22:14:28.398Z,100.00
2022-10-13T22:16:56.183Z,100.00
2022-10-13T22:19:24.337Z,100.00
2022-10-13T22:21:56.394Z,100.00
2022-10-13T22:24:24.269Z,100.00
2022-10-13T22:26:53.432Z,100.00
2022-10-13T22:29:26.352Z,100.00
2022-10-13T22:31:57.722Z,100.00
2022-10-13T22:34:29.896Z,100.00
2022-10-13T22:36:57.675Z,100.00
2022-10-13T22:39:25.450Z,100.00
2022-10-13T22:41:58.258Z,100.00
2022-10-13T22:44:26.210Z,100.00
2022-10-13T22:46:54.007Z,100.00
2022-10-13T22:49:25.768Z,100.00
2022-10-13T22:51:53.495Z,100.00
2022-10-13T22:54:23.470Z,100.00
2022-10-13T22:56:53.423Z,100.00
2022-10-13T22:59:22.602Z,100.00
2022-10-13T23:01:52.568Z,100.00
2022-10-13T23:04:22.300Z,100.00
2022-10-13T23:06:50.098Z,100.00
2022-10-13T23:09:20.025Z,100.00
2022-10-13T23:11:47.969Z,100.00
2022-10-13T23:14:15.785Z,100.00
2022-10-13T23:16:46.772Z,100.00
2022-10-13T23:19:16.461Z,100.00
2022-10-13T23:21:44.223Z,100.00
2022-10-13T23:24:14.244Z,100.00
2022-10-13T23:26:43.915Z,100.00
2022-10-13T23:29:11.738Z,100.00
2022-10-13T23:31:41.688Z,100.00
2022-10-13T23:34:13.060Z,100.00
2022-10-13T23:36:40.925Z,100.00
2022-10-13T23:39:11.562Z,100.00
2022-10-13T23:41:43.466Z,100.00
2022-10-13T23:44:11.242Z,100.00
2022-10-13T23:46:39.133Z,100.00
2022-10-13T23:49:14.705Z,100.00
2022-10-13T23:51:44.542Z,100.00
2022-10-13T23:54:12.610Z,100.00
2022-10-13T23:56:44.509Z,100.00
2022-10-13T23:59:12.233Z,100.00
